createdAt,value
2018-10-19T00:00:31.329Z,100763.09
2018-10-19T00:03:00.481Z,100759.81
2018-10-19T00:05:29.648Z,100762.83
2018-10-19T00:07:58.725Z,100760.93
2018-10-19T00:10:27.827Z,100757.42
2018-10-19T00:12:57.020Z,100757.16
2018-10-19T00:15:26.102Z,100753.13
2018-10-19T00:17:55.227Z,100751.25
2018-10-19T00:20:24.298Z,100749.06
2018-10-19T00:22:53.449Z,100747.42
2018-10-19T00:25:22.453Z,100743.91
2018-10-19T00:27:51.605Z,100744.20
2018-10-19T00:30:20.687Z,100731.84
2018-10-19T00:32:50.007Z,100742.06
2018-10-19T00:35:19.403Z,100746.38
2018-10-19T00:37:48.483Z,100746.67
2018-10-19T00:40:17.583Z,100744.73
2018-10-19T00:42:46.876Z,100747.72
2018-10-19T00:45:16.050Z,100745.00
2018-10-19T00:47:45.106Z,100743.64
2018-10-19T00:50:14.183Z,100742.29
2018-10-19T00:52:43.415Z,100745.33
2018-10-19T00:55:12.526Z,100739.35
2018-10-19T00:57:41.635Z,100734.49
2018-10-19T01:00:10.791Z,100736.36
2018-10-19T01:02:39.758Z,100739.06
2018-10-19T01:05:08.996Z,100737.19
2018-10-19T01:07:38.130Z,100733.44
2018-10-19T01:10:07.208Z,100727.48
2018-10-19T01:12:36.306Z,100724.55
2018-10-19T01:15:05.728Z,100730.48
2018-10-19T01:17:34.945Z,100725.31
2018-10-19T01:20:03.948Z,100732.31
2018-10-19T01:22:32.945Z,100735.00
2018-10-19T01:25:01.941Z,100737.44
2018-10-19T01:27:30.946Z,100737.44
2018-10-19T01:29:59.958Z,100732.37
2018-10-19T01:32:28.990Z,100735.84
2018-10-19T01:34:58.118Z,100732.87
2018-10-19T01:37:27.012Z,100733.42
2018-10-19T01:39:57.379Z,100732.59
2018-10-19T01:42:26.371Z,100732.57
2018-10-19T01:44:55.386Z,100732.57
2018-10-19T01:47:24.365Z,100733.92
2018-10-19T01:49:53.331Z,100731.48
2018-10-19T01:52:22.405Z,100735.50
2018-10-19T01:54:51.698Z,100734.95
2018-10-19T01:57:21.429Z,100732.02
2018-10-19T01:59:50.838Z,100733.33
2018-10-19T02:02:20.038Z,100728.52
2018-10-19T02:04:49.056Z,100731.78
2018-10-19T02:07:18.012Z,100737.17
2018-10-19T02:09:47.090Z,100732.05
2018-10-19T02:12:16.146Z,100735.58
2018-10-19T02:14:45.084Z,100736.61
2018-10-19T02:17:14.196Z,100738.27
2018-10-19T02:19:43.234Z,100743.96
2018-10-19T02:22:12.289Z,100743.91
2018-10-19T02:24:41.305Z,100747.42
2018-10-19T02:27:10.294Z,100750.64
2018-10-19T02:29:39.391Z,100743.39
2018-10-19T02:32:08.423Z,100749.30
2018-10-19T02:34:37.675Z,100752.03
2018-10-19T02:37:06.891Z,100746.38
2018-10-19T02:39:35.900Z,100750.13
2018-10-19T02:42:05.058Z,100748.00
2018-10-19T02:44:34.062Z,100744.25
2018-10-19T02:47:03.268Z,100748.56
2018-10-19T02:49:32.286Z,100744.51
2018-10-19T02:52:01.254Z,100744.30
2018-10-19T02:54:30.278Z,100743.20
2018-10-19T02:56:59.361Z,100743.50
2018-10-19T02:59:28.341Z,100742.72
2018-10-19T03:01:57.334Z,100740.06
2018-10-19T03:04:26.358Z,100738.48
2018-10-19T03:06:55.422Z,100747.89
2018-10-19T03:09:24.424Z,100744.38
2018-10-19T03:11:53.411Z,100744.10
2018-10-19T03:14:22.401Z,100745.20
2018-10-19T03:16:51.397Z,100744.63
2018-10-19T03:19:20.434Z,100747.34
2018-10-19T03:21:49.478Z,100750.28
2018-10-19T03:24:18.471Z,100755.96
2018-10-19T03:26:47.469Z,100750.03
2018-10-19T03:29:16.507Z,100751.63
2018-10-19T03:31:45.468Z,100751.63
2018-10-19T03:34:15.580Z,100750.83
2018-10-19T03:36:44.577Z,100747.61
2018-10-19T03:39:13.639Z,100750.58
2018-10-19T03:41:42.566Z,100740.88
2018-10-19T03:44:11.548Z,100741.70
2018-10-19T03:46:40.690Z,100739.33
2018-10-19T03:49:09.741Z,100745.20
2018-10-19T03:51:38.752Z,100742.80
2018-10-19T03:54:07.771Z,100747.90
2018-10-19T03:56:36.742Z,100743.05
2018-10-19T03:59:05.932Z,100745.51
2018-10-19T04:01:35.052Z,100743.33
2018-10-19T04:04:04.228Z,100746.28
2018-10-19T04:06:35.589Z,100749.25
2018-10-19T04:09:07.326Z,100748.47
2018-10-19T04:11:36.262Z,100753.84
2018-10-19T04:14:05.634Z,100758.98
2018-10-19T04:16:34.726Z,100754.13
2018-10-19T04:19:03.934Z,100754.75
2018-10-19T04:21:33.139Z,100752.59
2018-10-19T04:24:02.313Z,100757.46
2018-10-19T04:26:31.345Z,100759.34
2018-10-19T04:29:00.553Z,100752.33
2018-10-19T04:31:29.542Z,100760.75
2018-10-19T04:33:58.541Z,100759.19
2018-10-19T04:36:27.507Z,100761.37
2018-10-19T04:38:56.598Z,100760.88
2018-10-19T04:41:25.598Z,100760.34
2018-10-19T04:43:54.582Z,100765.17
2018-10-19T04:46:23.617Z,100772.19
2018-10-19T04:48:52.667Z,100767.59
2018-10-19T04:51:21.653Z,100771.41
2018-10-19T04:53:50.749Z,100771.94
2018-10-19T04:56:19.662Z,100770.06
2018-10-19T04:58:48.660Z,100775.95
2018-10-19T05:01:17.656Z,100776.52
2018-10-19T05:03:46.678Z,100776.55
2018-10-19T05:06:15.813Z,100777.33
2018-10-19T05:08:44.760Z,100774.91
2018-10-19T05:11:13.813Z,100778.38
2018-10-19T05:13:42.757Z,100778.41
2018-10-19T05:16:11.825Z,100776.25
2018-10-19T05:18:40.799Z,100775.17
2018-10-19T05:21:09.840Z,100778.95
2018-10-19T05:23:39.010Z,100779.22
2018-10-19T05:26:08.031Z,100772.77
2018-10-19T05:28:36.998Z,100780.80
2018-10-19T05:31:06.062Z,100776.80
2018-10-19T05:33:35.134Z,100791.30
2018-10-19T05:36:04.395Z,100788.35
2018-10-19T05:38:34.189Z,100799.91
2018-10-19T05:41:03.262Z,100798.04
2018-10-19T05:43:32.200Z,100809.58
2018-10-19T05:46:01.180Z,100810.41
2018-10-19T05:48:30.161Z,100808.79
2018-10-19T05:50:59.177Z,100809.05
2018-10-19T05:53:28.192Z,100818.74
2018-10-19T05:55:57.242Z,100816.28
2018-10-19T05:58:26.177Z,100822.45
2018-10-19T06:00:55.146Z,100826.73
2018-10-19T06:03:24.164Z,100828.36
2018-10-19T06:05:53.233Z,100832.14
2018-10-19T06:08:22.271Z,100835.91
2018-10-19T06:10:51.446Z,100836.73
2018-10-19T06:13:20.469Z,100840.45
2018-10-19T06:15:49.537Z,100844.77
2018-10-19T06:18:19.057Z,100840.99
2018-10-19T06:20:48.110Z,100846.34
2018-10-19T06:23:17.209Z,100840.99
2018-10-19T06:25:46.144Z,100849.86
2018-10-19T06:28:15.297Z,100850.13
2018-10-19T06:30:44.403Z,100845.56
2018-10-19T06:33:13.416Z,100852.30
2018-10-19T06:35:42.426Z,100853.07
2018-10-19T06:38:11.514Z,100851.74
2018-10-19T06:40:40.501Z,100860.37
2018-10-19T06:43:09.686Z,100862.52
2018-10-19T06:45:38.648Z,100868.97
2018-10-19T06:48:07.734Z,100874.61
2018-10-19T06:50:36.699Z,100874.63
2018-10-19T06:53:05.771Z,100877.58
2018-10-19T06:55:34.730Z,100873.53
2018-10-19T06:58:03.738Z,100884.82
2018-10-19T07:00:32.720Z,100878.91
2018-10-19T07:03:01.723Z,100881.06
2018-10-19T07:05:30.753Z,100884.04
2018-10-19T07:07:59.795Z,100889.41
2018-10-19T07:10:28.727Z,100888.06
2018-10-19T07:12:57.732Z,100889.94
2018-10-19T07:15:26.733Z,100889.40
2018-10-19T07:17:55.693Z,100897.20
2018-10-19T07:20:24.691Z,100902.83
2018-10-19T07:22:53.830Z,100904.45
2018-10-19T07:25:22.786Z,100905.02
2018-10-19T07:27:51.861Z,100909.84
2018-10-19T07:30:20.864Z,100904.18
2018-10-19T07:32:49.855Z,100908.73
2018-10-19T07:35:18.995Z,100909.25
2018-10-19T07:37:48.838Z,100909.80
2018-10-19T07:40:17.925Z,100910.05
2018-10-19T07:42:47.070Z,100912.48
2018-10-19T07:45:16.093Z,100910.34
2018-10-19T07:47:45.264Z,100917.59
2018-10-19T07:50:14.250Z,100920.28
2018-10-19T07:52:43.200Z,100917.85
2018-10-19T07:55:12.411Z,100918.39
2018-10-19T07:57:41.459Z,100929.69
2018-10-19T08:00:11.014Z,100929.39
2018-10-19T08:02:39.978Z,100935.85
2018-10-19T08:05:09.756Z,100928.34
2018-10-19T08:07:38.762Z,100938.57
2018-10-19T08:10:08.674Z,100942.60
2018-10-19T08:12:37.702Z,100941.52
2018-10-19T08:15:08.592Z,100942.89
2018-10-19T08:17:37.814Z,100939.88
2018-10-19T08:20:07.479Z,100943.11
2018-10-19T08:22:38.969Z,100947.11
2018-10-19T08:25:09.776Z,100948.48
2018-10-19T08:27:38.832Z,100945.25
2018-10-19T08:30:07.932Z,100953.02
2018-10-19T08:32:37.302Z,100953.06
2018-10-19T08:35:06.898Z,100951.72
2018-10-19T08:37:36.190Z,100956.55
2018-10-19T08:40:06.308Z,100961.12
2018-10-19T08:42:35.319Z,100960.57
2018-10-19T08:45:04.431Z,100963.52
2018-10-19T08:47:33.478Z,100971.02
2018-10-19T08:50:02.512Z,100968.08
2018-10-19T08:52:31.529Z,100969.67
2018-10-19T08:55:00.611Z,100971.81
2018-10-19T08:57:29.614Z,100968.87
2018-10-19T08:59:58.636Z,100966.44
2018-10-19T09:02:27.815Z,100974.25
2018-10-19T09:04:56.993Z,100968.63
2018-10-19T09:07:26.000Z,100973.20
2018-10-19T09:09:54.982Z,100972.70
2018-10-19T09:12:24.057Z,100976.21
2018-10-19T09:14:54.812Z,100978.06
2018-10-19T09:17:23.934Z,100984.81
2018-10-19T09:19:53.242Z,100983.47
2018-10-19T09:22:22.414Z,100982.13
2018-10-19T09:24:51.712Z,100986.96
2018-10-19T09:27:20.911Z,100982.64
2018-10-19T09:29:49.938Z,100985.59
2018-10-19T09:32:18.944Z,100980.72
2018-10-19T09:34:47.994Z,100980.75
2018-10-19T09:37:16.941Z,100981.84
2018-10-19T09:39:46.061Z,100978.90
2018-10-19T09:42:15.159Z,100982.38
2018-10-19T09:44:47.877Z,100979.41
2018-10-19T09:47:17.523Z,100983.66
2018-10-19T09:49:46.502Z,100978.61
2018-10-19T09:52:15.450Z,100982.38
2018-10-19T09:54:44.445Z,100980.98
2018-10-19T09:57:13.559Z,100981.84
2018-10-19T09:59:42.420Z,100981.55
2018-10-19T10:02:11.488Z,100976.95
2018-10-19T10:04:40.438Z,100979.92
2018-10-19T10:07:09.500Z,100980.17
2018-10-19T10:09:38.716Z,100989.83
2018-10-19T10:12:07.708Z,100978.83
2018-10-19T10:14:36.946Z,100976.94
2018-10-19T10:17:05.954Z,100986.58
2018-10-19T10:19:34.934Z,100982.56
2018-10-19T10:22:03.890Z,100982.31
2018-10-19T10:24:32.945Z,100982.61
2018-10-19T10:27:01.869Z,100986.34
2018-10-19T10:29:30.923Z,100981.81
2018-10-19T10:32:00.020Z,100984.24
2018-10-19T10:34:29.006Z,100981.84
2018-10-19T10:36:58.095Z,100981.55
2018-10-19T10:39:27.081Z,100982.09
2018-10-19T10:41:56.052Z,100984.20
2018-10-19T10:44:25.053Z,100985.87
2018-10-19T10:46:54.058Z,100985.33
2018-10-19T10:49:23.066Z,100981.59
2018-10-19T10:51:52.190Z,100982.64
2018-10-19T10:54:21.137Z,100987.47
2018-10-19T10:56:50.114Z,100986.41
2018-10-19T10:59:19.133Z,100982.92
2018-10-19T11:01:48.115Z,100987.50
2018-10-19T11:04:17.174Z,100981.87
2018-10-19T11:06:46.323Z,100987.22
2018-10-19T11:09:15.273Z,100976.75
2018-10-19T11:11:44.277Z,100975.41
2018-10-19T11:14:13.314Z,100970.30
2018-10-19T11:16:42.248Z,100970.55
2018-10-19T11:19:11.526Z,100968.95
2018-10-19T11:21:40.592Z,100968.66
2018-10-19T11:24:09.662Z,100967.60
2018-10-19T11:26:38.687Z,100966.25
2018-10-19T11:29:07.689Z,100961.16
2018-10-19T11:31:36.759Z,100961.17
2018-10-19T11:34:05.934Z,100962.78
2018-10-19T11:36:34.868Z,100956.58
2018-10-19T11:39:04.664Z,100959.26
2018-10-19T11:41:33.685Z,100954.69
2018-10-19T11:44:02.744Z,100959.28
2018-10-19T11:46:31.742Z,100959.55
2018-10-19T11:49:00.790Z,100960.36
2018-10-19T11:51:29.717Z,100952.30
2018-10-19T11:53:58.684Z,100953.65
2018-10-19T11:56:27.714Z,100957.39
2018-10-19T11:58:56.723Z,100960.36
2018-10-19T12:01:25.729Z,100961.42
2018-10-19T12:03:54.758Z,100960.88
2018-10-19T12:06:23.712Z,100958.73
2018-10-19T12:08:52.809Z,100956.84
2018-10-19T12:11:21.782Z,100956.31
2018-10-19T12:13:50.773Z,100951.47
2018-10-19T12:16:19.940Z,100952.03
2018-10-19T12:18:48.861Z,100948.78
2018-10-19T12:21:17.930Z,100945.00
2018-10-19T12:23:46.880Z,100944.48
2018-10-19T12:26:15.892Z,100948.23
2018-10-19T12:28:44.960Z,100950.94
2018-10-19T12:31:13.971Z,100948.76
2018-10-19T12:33:42.934Z,100943.13
2018-10-19T12:36:11.930Z,100947.41
2018-10-19T12:38:40.932Z,100947.93
2018-10-19T12:41:10.084Z,100944.44
2018-10-19T12:43:39.001Z,100942.55
2018-10-19T12:46:20.749Z,100940.15
2018-10-19T12:48:50.097Z,100939.58
2018-10-19T12:51:19.928Z,100936.37
2018-10-19T12:53:49.076Z,100936.11
2018-10-19T12:56:19.080Z,100938.27
2018-10-19T12:58:49.070Z,100936.67
2018-10-19T13:01:18.192Z,100938.28
2018-10-19T13:03:47.159Z,100935.58
2018-10-19T13:06:16.167Z,100927.48
2018-10-19T13:08:45.161Z,100928.28
2018-10-19T13:11:14.203Z,100927.99
2018-10-19T13:13:43.268Z,100928.55
2018-10-19T13:16:12.256Z,100922.36
2018-10-19T13:18:41.214Z,100921.85
2018-10-19T13:21:10.476Z,100912.13
2018-10-19T13:23:39.482Z,100915.37
2018-10-19T13:26:08.520Z,100912.09
2018-10-19T13:28:37.485Z,100914.25
2018-10-19T13:31:06.515Z,100908.31
2018-10-19T13:33:35.486Z,100903.78
2018-10-19T13:36:04.814Z,100915.37
2018-10-19T13:38:33.796Z,100907.55
2018-10-19T13:41:04.606Z,100899.73
2018-10-19T13:43:33.722Z,100909.90
2018-10-19T13:46:02.889Z,100904.27
2018-10-19T13:48:32.026Z,100904.23
2018-10-19T13:51:01.163Z,100905.59
2018-10-19T13:53:30.105Z,100909.89
2018-10-19T13:55:59.098Z,100905.02
2018-10-19T13:58:28.277Z,100906.35
2018-10-19T14:00:57.184Z,100905.00
2018-10-19T14:03:26.191Z,100901.27
2018-10-19T14:05:55.175Z,100903.97
2018-10-19T14:08:24.147Z,100906.17
2018-10-19T14:10:53.164Z,100906.94
2018-10-19T14:13:22.215Z,100902.63
2018-10-19T14:15:51.402Z,100902.95
2018-10-19T14:18:20.456Z,100899.77
2018-10-19T14:20:49.516Z,100899.52
2018-10-19T14:23:18.651Z,100898.44
2018-10-19T14:25:47.534Z,100895.75
2018-10-19T14:28:16.532Z,100901.41
2018-10-19T14:30:45.522Z,100892.56
2018-10-19T14:33:14.728Z,100888.79
2018-10-19T14:35:43.639Z,100890.40
2018-10-19T14:38:12.680Z,100888.80
2018-10-19T14:40:41.708Z,100888.02
2018-10-19T14:43:10.817Z,100886.94
2018-10-19T14:45:39.833Z,100895.53
2018-10-19T14:48:08.882Z,100894.45
2018-10-19T14:50:37.924Z,100890.43
2018-10-19T14:53:06.967Z,100896.08
2018-10-19T14:55:36.170Z,100903.08
2018-10-19T14:58:05.473Z,100896.06
2018-10-19T15:00:34.569Z,100899.30
2018-10-19T15:03:03.747Z,100900.34
2018-10-19T15:05:32.929Z,100896.05
2018-10-19T15:08:02.175Z,100902.75
2018-10-19T15:10:31.384Z,100904.09
2018-10-19T15:13:00.289Z,100908.11
2018-10-19T15:15:29.557Z,100904.36
2018-10-19T15:17:58.910Z,100911.08
2018-10-19T15:20:27.997Z,100908.67
2018-10-19T15:22:56.969Z,100911.36
2018-10-19T15:25:25.933Z,100904.67
2018-10-19T15:27:54.928Z,100905.45
2018-10-19T15:30:23.961Z,100904.92
2018-10-19T15:32:52.951Z,100906.00
2018-10-19T15:35:21.965Z,100901.95
2018-10-19T15:37:50.915Z,100899.82
2018-10-19T15:40:19.912Z,100897.66
2018-10-19T15:42:48.880Z,100896.03
2018-10-19T15:45:17.899Z,100896.58
2018-10-19T15:47:46.948Z,100900.09
2018-10-19T15:50:15.983Z,100896.88
2018-10-19T15:52:45.112Z,100895.52
2018-10-19T15:55:14.343Z,100900.89
2018-10-19T15:57:43.377Z,100904.13
2018-10-19T16:00:12.500Z,100905.49
2018-10-19T16:02:41.462Z,100906.02
2018-10-19T16:05:10.469Z,100906.55
2018-10-19T16:07:39.460Z,100911.67
2018-10-19T16:10:08.421Z,100909.80
2018-10-19T16:12:37.423Z,100911.94
2018-10-19T16:15:08.620Z,100909.54
2018-10-19T16:17:37.570Z,100910.89
2018-10-19T16:20:08.303Z,100911.70
2018-10-19T16:22:37.616Z,100915.19
2018-10-19T16:25:07.046Z,100922.16
2018-10-19T16:27:36.866Z,100923.52
2018-10-19T16:30:07.150Z,100927.02
2018-10-19T16:32:36.353Z,100933.99
2018-10-19T16:35:05.343Z,100933.20
2018-10-19T16:37:34.385Z,100932.41
2018-10-19T16:40:03.544Z,100933.75
2018-10-19T16:42:32.590Z,100933.75
2018-10-19T16:45:01.636Z,100932.95
2018-10-19T16:47:30.967Z,100930.26
2018-10-19T16:50:00.012Z,100942.87
2018-10-19T16:52:29.120Z,100936.69
2018-10-19T16:54:59.046Z,100938.86
2018-10-19T16:57:28.098Z,100939.13
2018-10-19T16:59:57.173Z,100936.98
2018-10-19T17:02:26.092Z,100944.24
2018-10-19T17:04:55.126Z,100939.13
2018-10-19T17:07:24.138Z,100937.77
2018-10-19T17:09:53.087Z,100942.07
2018-10-19T17:12:22.081Z,100943.16
2018-10-19T17:14:51.082Z,100944.75
2018-10-19T17:17:20.098Z,100941.02
2018-10-19T17:19:49.055Z,100939.64
2018-10-19T17:22:18.158Z,100939.67
2018-10-19T17:24:47.159Z,100946.39
2018-10-19T17:27:16.167Z,100942.61
2018-10-19T17:29:45.204Z,100947.19
2018-10-19T17:32:14.330Z,100946.10
2018-10-19T17:34:43.313Z,100949.33
2018-10-19T17:37:12.326Z,100946.91
2018-10-19T17:39:41.312Z,100951.47
2018-10-19T17:42:10.451Z,100953.36
2018-10-19T17:44:39.393Z,100955.52
2018-10-19T17:47:09.737Z,100956.86
2018-10-19T17:49:38.925Z,100954.43
2018-10-19T17:52:08.233Z,100955.18
2018-10-19T17:54:38.351Z,100957.31
2018-10-19T17:57:07.382Z,100955.97
2018-10-19T17:59:37.371Z,100956.52
2018-10-19T18:02:06.447Z,100960.77
2018-10-19T18:04:36.560Z,100960.86
2018-10-19T18:07:05.718Z,100964.36
2018-10-19T18:09:34.955Z,100958.45
2018-10-19T18:12:03.903Z,100957.12
2018-10-19T18:14:33.064Z,100954.45
2018-10-19T18:17:02.138Z,100962.77
2018-10-19T18:19:31.109Z,100964.12
2018-10-19T18:22:01.350Z,100961.69
2018-10-19T18:24:31.314Z,100965.98
2018-10-19T18:27:00.323Z,100965.98
2018-10-19T18:29:30.177Z,100970.01
2018-10-19T18:32:00.151Z,100970.01
2018-10-19T18:34:29.348Z,100967.61
2018-10-19T18:36:58.386Z,100963.03
2018-10-19T18:39:27.378Z,100974.33
2018-10-19T18:41:56.448Z,100975.92
2018-10-19T18:44:25.491Z,100974.58
2018-10-19T18:46:54.591Z,100976.72
2018-10-19T18:49:23.913Z,100977.52
2018-10-19T18:51:52.990Z,100978.61
2018-10-19T18:54:22.175Z,100981.05
2018-10-19T18:56:51.175Z,100988.27
2018-10-19T18:59:20.182Z,100994.19
2018-10-19T19:01:49.108Z,100991.72
2018-10-19T19:04:18.102Z,100996.84
2018-10-19T19:06:48.042Z,101000.36
2018-10-19T19:09:18.047Z,101003.81
2018-10-19T19:11:47.076Z,101003.27
2018-10-19T19:14:16.283Z,101004.35
2018-10-19T19:16:45.280Z,101008.38
2018-10-19T19:19:14.373Z,101008.38
2018-10-19T19:21:43.421Z,101009.72
2018-10-19T19:24:17.974Z,101008.92
2018-10-19T19:26:46.975Z,101008.92
2018-10-19T19:29:16.213Z,101009.47
2018-10-19T19:31:45.158Z,101010.05
2018-10-19T19:34:21.121Z,101004.67
2018-10-19T19:36:50.070Z,101011.36
2018-10-19T19:39:19.100Z,101011.61
2018-10-19T19:41:53.482Z,101011.31
2018-10-19T19:44:22.544Z,101011.60
2018-10-19T19:46:51.497Z,101011.31
2018-10-19T19:49:25.877Z,101021.52
2018-10-19T19:51:54.913Z,101015.34
2018-10-19T19:54:24.024Z,101024.73
2018-10-19T19:56:53.027Z,101022.04
2018-10-19T19:59:22.111Z,101017.20
2018-10-19T20:01:51.108Z,101022.58
2018-10-19T20:04:20.389Z,101020.16
2018-10-19T20:06:49.487Z,101023.63
2018-10-19T20:09:18.503Z,101026.31
2018-10-19T20:11:47.511Z,101028.44
2018-10-19T20:14:16.502Z,101029.77
2018-10-19T20:16:45.448Z,101033.80
2018-10-19T20:19:14.408Z,101034.06
2018-10-19T20:21:43.353Z,101030.31
2018-10-19T20:24:12.337Z,101035.94
2018-10-19T20:26:42.078Z,101034.89
2018-10-19T20:29:11.106Z,101036.48
2018-10-19T20:31:40.086Z,101031.91
2018-10-19T20:34:09.176Z,101029.22
2018-10-19T20:36:38.441Z,101033.50
2018-10-19T20:39:08.968Z,101031.41
2018-10-19T20:41:38.024Z,101038.08
2018-10-19T20:44:07.104Z,101031.64
2018-10-19T20:46:36.143Z,101029.77
2018-10-19T20:49:05.449Z,101031.36
2018-10-19T20:51:35.513Z,101026.83
2018-10-19T20:54:04.603Z,101034.58
2018-10-19T20:56:33.565Z,101032.42
2018-10-19T20:59:02.834Z,101033.23
2018-10-19T21:01:31.843Z,101032.69
2018-10-19T21:04:00.904Z,101028.95
2018-10-19T21:06:30.023Z,101031.59
2018-10-19T21:08:59.124Z,101030.53
2018-10-19T21:11:28.086Z,101030.52
2018-10-19T21:13:57.283Z,101028.88
2018-10-19T21:16:26.207Z,101029.41
2018-10-19T21:18:55.232Z,101030.23
2018-10-19T21:21:24.181Z,101028.36
2018-10-19T21:23:54.092Z,101027.30
2018-10-19T21:26:24.024Z,101025.94
2018-10-19T21:28:55.074Z,101023.51
2018-10-19T21:31:24.085Z,101022.17
2018-10-19T21:33:53.074Z,101021.36
2018-10-19T21:36:22.042Z,101018.66
2018-10-19T21:38:50.989Z,101023.23
2018-10-19T21:41:21.017Z,101015.99
2018-10-19T21:43:50.160Z,101025.39
2018-10-19T21:46:19.202Z,101023.76
2018-10-19T21:48:48.129Z,101024.58
2018-10-19T21:51:17.063Z,101023.74
2018-10-19T21:53:46.033Z,101025.94
2018-10-19T21:56:15.051Z,101021.59
2018-10-19T21:58:43.990Z,101024.58
2018-10-19T22:01:12.978Z,101021.89
2018-10-19T22:03:41.971Z,101024.02
2018-10-19T22:06:10.970Z,101024.52
2018-10-19T22:08:40.077Z,101019.70
2018-10-19T22:11:09.041Z,101016.24
2018-10-19T22:13:37.956Z,101021.90
2018-10-19T22:16:07.529Z,101023.74
2018-10-19T22:18:36.529Z,101019.72
2018-10-19T22:21:05.540Z,101021.90
2018-10-19T22:23:34.567Z,101024.02
2018-10-19T22:26:03.571Z,101015.18
2018-10-19T22:28:32.511Z,101022.14
2018-10-19T22:31:01.510Z,101020.77
2018-10-19T22:33:30.514Z,101022.92
2018-10-19T22:35:59.462Z,101026.63
2018-10-19T22:38:28.450Z,101033.34
2018-10-19T22:40:57.369Z,101030.92
2018-10-19T22:43:26.339Z,101034.41
2018-10-19T22:45:55.334Z,101035.52
2018-10-19T22:48:25.352Z,101038.45
2018-10-19T22:50:54.299Z,101038.13
2018-10-19T22:53:23.297Z,101041.92
2018-10-19T22:55:52.325Z,101037.09
2018-10-19T22:58:21.306Z,101039.46
2018-10-19T23:00:50.348Z,101035.98
2018-10-19T23:03:19.342Z,101031.16
2018-10-19T23:05:48.307Z,101033.53
2018-10-19T23:08:17.310Z,101028.95
2018-10-19T23:10:46.426Z,101029.49
2018-10-19T23:13:15.472Z,101033.77
2018-10-19T23:15:44.365Z,101034.05
2018-10-19T23:18:13.376Z,101032.69
2018-10-19T23:20:42.349Z,101043.13
2018-10-19T23:23:11.458Z,101038.61
2018-10-19T23:25:40.393Z,101036.98
2018-10-19T23:28:09.337Z,101041.81
2018-10-19T23:30:38.418Z,101042.63
2018-10-19T23:33:07.497Z,101047.98
2018-10-19T23:35:36.537Z,101040.70
2018-10-19T23:38:05.880Z,101043.39
2018-10-19T23:40:34.847Z,101043.09
2018-10-19T23:43:04.071Z,101044.17
2018-10-19T23:45:33.031Z,101038.81
2018-10-19T23:48:01.988Z,101040.39
2018-10-19T23:50:30.915Z,101041.14
2018-10-19T23:53:00.134Z,101047.83
2018-10-19T23:55:29.104Z,101050.20
2018-10-19T23:57:58.053Z,101054.50
